Time;durP1;ratioP1;P1;durP2;ratioP2;P2;SDS_P1;SDS_P2;PMS_P1;PMS_P2;Temp;Humidity;BMP_temperature;BMP_pressure;BME280_temperature;BME280_humidity;BME280_pressure;Samples;Min_cycle;Max_cycle;Signal;HPM_P1;HPM_P2
2023/08/22 00:02:27;;;;;;;10.45;5.78;;;;;;;;;;5028527;28;20205;-69
2023/08/22 00:04:53;;;;;;;11.93;5.75;;;;;;;;;;5028224;28;20194;-68
2023/08/22 00:07:18;;;;;;;14.57;6.20;;;;;;;;;;5011074;28;20182;-69
2023/08/22 00:09:44;;;;;;;9.18;5.40;;;;;;;;;;5029690;28;20189;-69
2023/08/22 00:12:09;;;;;;;14.05;5.50;;;;;;;;;;5016221;28;20191;-69
2023/08/22 00:14:35;;;;;;;9.50;5.78;;;;;;;;;;5028895;28;20273;-69
2023/08/22 00:17:00;;;;;;;12.93;5.85;;;;;;;;;;5028506;28;20222;-69
2023/08/22 00:19:26;;;;;;;9.57;5.03;;;;;;;;;;5028808;28;20186;-69
2023/08/22 00:21:51;;;;;;;8.50;5.38;;;;;;;;;;5025747;28;20221;-69
2023/08/22 00:24:16;;;;;;;12.05;6.05;;;;;;;;;;5030168;28;20194;-70
2023/08/22 00:26:42;;;;;;;10.45;5.65;;;;;;;;;;5022724;28;20202;-69
2023/08/22 00:29:07;;;;;;;9.48;6.00;;;;;;;;;;5027981;28;20198;-68
2023/08/22 00:31:33;;;;;;;9.50;5.53;;;;;;;;;;5033069;28;20273;-69
2023/08/22 00:34:01;;;;;;;10.77;5.55;;;;;;;;;;5027437;28;20186;-69
2023/08/22 00:36:26;;;;;;;10.73;5.90;;;;;;;;;;5032410;28;20214;-69
2023/08/22 00:38:52;;;;;;;11.00;6.10;;;;;;;;;;5016777;28;20190;-69
2023/08/22 00:41:17;;;;;;;11.15;6.00;;;;;;;;;;5027914;28;20283;-69
2023/08/22 00:43:43;;;;;;;8.82;5.55;;;;;;;;;;5022742;28;20301;-69
2023/08/22 00:46:08;;;;;;;10.90;6.40;;;;;;;;;;5020990;28;20242;-69
2023/08/22 00:48:34;;;;;;;11.30;5.80;;;;;;;;;;5024961;28;20285;-69
2023/08/22 00:51:00;;;;;;;13.80;5.93;;;;;;;;;;5026355;28;20190;-69
2023/08/22 00:53:26;;;;;;;10.20;6.15;;;;;;;;;;5033409;28;20197;-69
2023/08/22 00:55:51;;;;;;;8.52;5.53;;;;;;;;;;5032220;28;20196;-69
2023/08/22 00:58:17;;;;;;;9.90;5.95;;;;;;;;;;5029322;28;20214;-69
2023/08/22 01:00:42;;;;;;;12.25;5.82;;;;;;;;;;5019629;28;20798;-69
2023/08/22 01:03:08;;;;;;;8.57;6.18;;;;;;;;;;5030847;28;20185;-69
2023/08/22 01:05:41;;;;;;;11.27;6.18;;;;;;;;;;5027568;28;20193;-69
2023/08/22 01:08:14;;;;;;;12.65;6.38;;;;;;;;;;5030629;28;20185;-69
2023/08/22 01:10:46;;;;;;;8.95;6.10;;;;;;;;;;5031609;28;20190;-70
2023/08/22 01:13:19;;;;;;;10.63;5.90;;;;;;;;;;5027246;28;20183;-69
2023/08/22 01:15:47;;;;;;;12.18;6.70;;;;;;;;;;5031810;28;20198;-69
2023/08/22 01:18:15;;;;;;;10.38;6.68;;;;;;;;;;5033125;28;20567;-69
2023/08/22 01:20:41;;;;;;;13.85;6.28;;;;;;;;;;5022731;28;20187;-69
2023/08/22 01:23:06;;;;;;;10.07;6.95;;;;;;;;;;5035250;28;20297;-69
2023/08/22 01:25:33;;;;;;;12.38;6.78;;;;;;;;;;5028296;28;20195;-69
2023/08/22 01:28:21;;;;;;;9.43;7.20;;;;;;;;;;5031844;28;20265;-69
2023/08/22 01:31:13;;;;;;;11.95;7.03;;;;;;;;;;5028019;28;20255;-69
2023/08/22 01:33:58;;;;;;;11.95;7.68;;;;;;;;;;5025549;28;20592;-69
2023/08/22 01:36:25;;;;;;;12.18;7.05;;;;;;;;;;5019024;28;20210;-70
2023/08/22 01:38:52;;;;;;;13.30;7.63;;;;;;;;;;5029018;28;20197;-70
2023/08/22 01:41:19;;;;;;;12.73;7.47;;;;;;;;;;5022393;28;20207;-70
2023/08/22 01:43:44;;;;;;;12.00;7.35;;;;;;;;;;5014413;28;20309;-70
2023/08/22 01:46:09;;;;;;;10.52;7.32;;;;;;;;;;5024196;28;20693;-69
2023/08/22 01:48:35;;;;;;;15.65;7.88;;;;;;;;;;5026813;28;20558;-69
2023/08/22 01:51:01;;;;;;;15.23;7.70;;;;;;;;;;5031087;28;20229;-69
2023/08/22 01:53:27;;;;;;;12.05;7.72;;;;;;;;;;5030594;28;20194;-69
2023/08/22 01:55:52;;;;;;;10.63;7.53;;;;;;;;;;5031248;28;20297;-70
2023/08/22 01:58:18;;;;;;;11.38;7.95;;;;;;;;;;5031781;28;20220;-69
2023/08/22 02:00:43;;;;;;;13.15;7.50;;;;;;;;;;5020475;28;20601;-69
2023/08/22 02:03:08;;;;;;;13.65;7.63;;;;;;;;;;5029871;28;20194;-69
2023/08/22 02:05:34;;;;;;;12.70;7.18;;;;;;;;;;5028594;28;20178;-69
2023/08/22 02:08:00;;;;;;;16.50;8.00;;;;;;;;;;5031083;28;20194;-69
2023/08/22 02:10:25;;;;;;;13.48;7.90;;;;;;;;;;5031278;28;20597;-69
2023/08/22 02:12:51;;;;;;;17.30;8.13;;;;;;;;;;5028955;28;20186;-69
2023/08/22 02:15:16;;;;;;;14.50;8.00;;;;;;;;;;5025284;28;20198;-69
2023/08/22 02:17:42;;;;;;;12.32;7.63;;;;;;;;;;5029832;28;20221;-70
2023/08/22 02:20:08;;;;;;;14.85;8.05;;;;;;;;;;5031348;28;20268;-69
2023/08/22 02:22:39;;;;;;;15.05;7.57;;;;;;;;;;5025491;28;20198;-69
2023/08/22 02:25:05;;;;;;;12.05;8.05;;;;;;;;;;5018747;28;20253;-69
2023/08/22 02:27:31;;;;;;;11.80;7.53;;;;;;;;;;5019640;28;20190;-70
2023/08/22 02:29:56;;;;;;;14.10;7.80;;;;;;;;;;5031237;28;20190;-69
2023/08/22 02:32:21;;;;;;;11.63;7.38;;;;;;;;;;5029261;28;20182;-69
2023/08/22 02:34:47;;;;;;;16.02;8.23;;;;;;;;;;5030447;28;20198;-69
2023/08/22 02:37:12;;;;;;;11.50;8.18;;;;;;;;;;5029781;28;20214;-69
2023/08/22 02:39:38;;;;;;;15.88;8.27;;;;;;;;;;5031100;28;20565;-70
2023/08/22 02:42:03;;;;;;;20.35;8.20;;;;;;;;;;5019458;28;20277;-70
2023/08/22 02:44:28;;;;;;;11.00;8.75;;;;;;;;;;5024496;28;20572;-68
2023/08/22 02:46:54;;;;;;;12.02;8.63;;;;;;;;;;5013251;28;20199;-68
2023/08/22 02:49:19;;;;;;;15.25;9.32;;;;;;;;;;5028858;28;20178;-69
2023/08/22 02:51:44;;;;;;;12.43;8.63;;;;;;;;;;5028448;28;20217;-69
2023/08/22 02:54:10;;;;;;;11.80;8.30;;;;;;;;;;5025891;28;20178;-69
2023/08/22 02:56:35;;;;;;;13.98;7.68;;;;;;;;;;5015807;28;20211;-68
2023/08/22 02:59:01;;;;;;;11.75;7.75;;;;;;;;;;5025773;28;20272;-69
2023/08/22 03:01:27;;;;;;;15.25;8.52;;;;;;;;;;5024515;28;20491;-69
2023/08/22 03:03:54;;;;;;;11.02;7.88;;;;;;;;;;5027669;28;20194;-69
2023/08/22 03:06:22;;;;;;;13.82;8.00;;;;;;;;;;5030083;28;20182;-69
2023/08/22 03:08:47;;;;;;;13.75;8.32;;;;;;;;;;5031309;28;20190;-68
2023/08/22 03:11:13;;;;;;;12.32;8.45;;;;;;;;;;5025238;28;20199;-69
2023/08/22 03:13:38;;;;;;;13.57;8.35;;;;;;;;;;5024968;28;20304;-69
2023/08/22 03:16:04;;;;;;;12.63;8.30;;;;;;;;;;5027335;28;20198;-69
2023/08/22 03:18:30;;;;;;;15.10;8.25;;;;;;;;;;5022742;28;20217;-69
2023/08/22 03:20:58;;;;;;;13.93;9.00;;;;;;;;;;5014552;28;20186;-69
2023/08/22 03:23:24;;;;;;;13.18;8.35;;;;;;;;;;5009044;28;20197;-69
2023/08/22 03:25:59;;;;;;;14.45;9.32;;;;;;;;;;5024300;28;20544;-68
2023/08/22 03:28:25;;;;;;;12.65;9.57;;;;;;;;;;5018155;28;20193;-68
2023/08/22 03:30:58;;;;;;;14.27;9.50;;;;;;;;;;5024763;28;20637;-69
2023/08/22 03:33:24;;;;;;;14.38;9.27;;;;;;;;;;5024600;28;20230;-70
2023/08/22 03:35:50;;;;;;;16.83;9.27;;;;;;;;;;5028969;28;20190;-69
2023/08/22 03:38:16;;;;;;;14.18;9.48;;;;;;;;;;5017323;28;20618;-70
2023/08/22 03:40:41;;;;;;;11.82;9.52;;;;;;;;;;5029224;28;20224;-68
2023/08/22 03:43:06;;;;;;;13.63;9.88;;;;;;;;;;5016939;28;20241;-68
2023/08/22 03:45:32;;;;;;;12.85;10.50;;;;;;;;;;5029138;28;20190;-70
2023/08/22 03:48:03;;;;;;;16.23;10.80;;;;;;;;;;5016365;28;20214;-70
2023/08/22 03:50:29;;;;;;;14.13;12.18;;;;;;;;;;5030609;28;20186;-70
2023/08/22 03:52:54;;;;;;;16.15;11.65;;;;;;;;;;5025929;28;20604;-69
2023/08/22 03:55:19;;;;;;;14.02;10.63;;;;;;;;;;5030391;28;20583;-69
2023/08/22 03:57:45;;;;;;;14.07;10.93;;;;;;;;;;5029151;28;20232;-68
2023/08/22 04:00:11;;;;;;;14.50;10.77;;;;;;;;;;5017208;28;20178;-69
2023/08/22 04:02:36;;;;;;;14.85;11.27;;;;;;;;;;5018476;28;20523;-69
2023/08/22 04:05:02;;;;;;;16.92;12.32;;;;;;;;;;5026574;28;20201;-69
2023/08/22 04:07:27;;;;;;;18.73;11.30;;;;;;;;;;5016346;28;20599;-69
2023/08/22 04:09:52;;;;;;;15.57;10.45;;;;;;;;;;5031973;28;20209;-69
2023/08/22 04:12:18;;;;;;;14.05;8.95;;;;;;;;;;5030277;28;20198;-69
2023/08/22 04:14:43;;;;;;;15.68;10.00;;;;;;;;;;5005943;28;20256;-69
2023/08/22 04:17:08;;;;;;;17.73;10.98;;;;;;;;;;5020291;28;20704;-69
2023/08/22 04:19:34;;;;;;;18.98;10.38;;;;;;;;;;5033778;28;20201;-69
2023/08/22 04:21:59;;;;;;;14.60;10.63;;;;;;;;;;5028154;28;20193;-69
2023/08/22 04:24:24;;;;;;;15.02;11.18;;;;;;;;;;5031940;28;20248;-69
2023/08/22 04:26:51;;;;;;;17.00;12.00;;;;;;;;;;5014733;28;20182;-69
2023/08/22 04:29:17;;;;;;;14.15;12.15;;;;;;;;;;5034090;28;20197;-69
2023/08/22 04:31:43;;;;;;;14.75;11.80;;;;;;;;;;5035136;28;20556;-69
2023/08/22 04:34:08;;;;;;;14.20;12.60;;;;;;;;;;5033254;28;20208;-69
2023/08/22 04:36:34;;;;;;;16.55;12.02;;;;;;;;;;5029856;28;20305;-69
2023/08/22 04:38:59;;;;;;;17.80;13.10;;;;;;;;;;5033219;28;20202;-69
2023/08/22 04:41:24;;;;;;;15.95;11.50;;;;;;;;;;5022354;28;20195;-69
2023/08/22 04:43:50;;;;;;;16.60;13.07;;;;;;;;;;5032171;28;20242;-69
2023/08/22 04:46:15;;;;;;;17.75;12.35;;;;;;;;;;5032335;28;20317;-69
2023/08/22 04:48:41;;;;;;;14.35;12.88;;;;;;;;;;5031124;28;20602;-69
2023/08/22 04:51:06;;;;;;;25.25;14.50;;;;;;;;;;5033005;28;20549;-69
2023/08/22 04:53:31;;;;;;;17.52;13.98;;;;;;;;;;5028257;28;20201;-69
2023/08/22 04:55:57;;;;;;;20.05;15.60;;;;;;;;;;5032264;28;20225;-69
2023/08/22 04:58:22;;;;;;;20.02;16.88;;;;;;;;;;5032200;28;20220;-69
2023/08/22 05:00:47;;;;;;;27.73;16.17;;;;;;;;;;5021704;28;20312;-69
2023/08/22 05:03:15;;;;;;;23.10;16.20;;;;;;;;;;5027017;28;20205;-69
2023/08/22 05:05:40;;;;;;;20.58;16.55;;;;;;;;;;5033127;28;20265;-69
2023/08/22 05:08:06;;;;;;;21.30;14.90;;;;;;;;;;5030461;28;20198;-69
2023/08/22 05:10:31;;;;;;;20.73;14.93;;;;;;;;;;5033299;28;20184;-70
2023/08/22 05:12:57;;;;;;;23.08;15.10;;;;;;;;;;5032055;28;20190;-70
2023/08/22 05:15:22;;;;;;;16.92;15.05;;;;;;;;;;5030888;28;20186;-70
2023/08/22 05:17:47;;;;;;;20.33;15.52;;;;;;;;;;5030597;28;20218;-70
2023/08/22 05:20:13;;;;;;;21.35;15.43;;;;;;;;;;5028968;28;20193;-70
2023/08/22 05:22:39;;;;;;;21.38;15.13;;;;;;;;;;5000672;28;20182;-70
2023/08/22 05:25:05;;;;;;;18.60;14.98;;;;;;;;;;5017570;28;20213;-69
2023/08/22 05:27:31;;;;;;;21.67;15.48;;;;;;;;;;5024425;28;20597;-70
2023/08/22 05:29:56;;;;;;;20.00;14.13;;;;;;;;;;5027459;28;20216;-70
2023/08/22 05:32:22;;;;;;;17.60;13.50;;;;;;;;;;5030773;28;20243;-70
2023/08/22 05:34:47;;;;;;;22.90;14.45;;;;;;;;;;5032857;28;20190;-70
2023/08/22 05:37:12;;;;;;;19.45;13.73;;;;;;;;;;5026367;28;20432;-70
2023/08/22 05:39:38;;;;;;;20.33;14.32;;;;;;;;;;5012496;28;20202;-70
2023/08/22 05:42:04;;;;;;;25.10;15.95;;;;;;;;;;5028716;28;20195;-69
2023/08/22 05:44:32;;;;;;;22.55;14.73;;;;;;;;;;5031834;28;20615;-69
2023/08/22 05:46:57;;;;;;;21.58;14.60;;;;;;;;;;5031823;28;20213;-70
2023/08/22 05:49:23;;;;;;;20.63;15.23;;;;;;;;;;5025370;28;20669;-70
2023/08/22 05:51:48;;;;;;;19.80;14.27;;;;;;;;;;5024360;28;20558;-70
2023/08/22 05:54:13;;;;;;;16.52;14.27;;;;;;;;;;5031734;28;20365;-70
2023/08/22 05:56:39;;;;;;;21.23;15.27;;;;;;;;;;5032683;28;20206;-70
2023/08/22 05:59:04;;;;;;;21.38;15.10;;;;;;;;;;5025699;28;22204;-68
2023/08/22 06:01:29;;;;;;;20.23;14.23;;;;;;;;;;5030421;28;20229;-68
2023/08/22 06:03:55;;;;;;;21.02;13.45;;;;;;;;;;5032863;28;20190;-70
2023/08/22 06:06:20;;;;;;;19.55;13.48;;;;;;;;;;5030034;28;20201;-69
2023/08/22 06:08:45;;;;;;;18.90;12.98;;;;;;;;;;5027876;28;20194;-69
2023/08/22 06:11:11;;;;;;;23.38;13.13;;;;;;;;;;5020138;28;20191;-69
2023/08/22 06:13:36;;;;;;;18.70;13.07;;;;;;;;;;5027635;28;20190;-69
2023/08/22 06:16:02;;;;;;;18.40;12.23;;;;;;;;;;5032234;28;20212;-68
2023/08/22 06:18:27;;;;;;;17.58;12.75;;;;;;;;;;5017207;28;20222;-69
2023/08/22 06:21:00;;;;;;;20.42;11.85;;;;;;;;;;5031749;28;20200;-69
2023/08/22 06:23:26;;;;;;;21.08;12.20;;;;;;;;;;5028912;28;20194;-68
2023/08/22 06:25:51;;;;;;;15.43;10.75;;;;;;;;;;5031482;28;20197;-69
2023/08/22 06:28:17;;;;;;;17.55;12.23;;;;;;;;;;5027180;28;20190;-69
2023/08/22 06:30:42;;;;;;;19.50;10.20;;;;;;;;;;5019943;28;20195;-70
2023/08/22 06:33:07;;;;;;;19.90;11.60;;;;;;;;;;5023185;28;20298;-70
2023/08/22 06:35:33;;;;;;;19.45;11.75;;;;;;;;;;5030460;28;20197;-70
2023/08/22 06:37:58;;;;;;;17.10;11.80;;;;;;;;;;5030789;28;20574;-68
2023/08/22 06:40:24;;;;;;;22.85;11.70;;;;;;;;;;5015572;28;20181;-68
2023/08/22 06:42:49;;;;;;;21.83;12.25;;;;;;;;;;5025817;28;20242;-69
2023/08/22 06:45:15;;;;;;;21.23;11.65;;;;;;;;;;5024582;28;20585;-69
2023/08/22 06:47:40;;;;;;;21.35;10.82;;;;;;;;;;5026502;28;20191;-69
2023/08/22 06:50:07;;;;;;;19.63;11.77;;;;;;;;;;5023807;28;20555;-69
2023/08/22 06:52:32;;;;;;;19.90;10.80;;;;;;;;;;5030502;28;20201;-69
2023/08/22 06:54:58;;;;;;;15.77;10.65;;;;;;;;;;5031716;28;20190;-69
2023/08/22 06:57:23;;;;;;;17.85;11.18;;;;;;;;;;5031127;28;20228;-69
2023/08/22 06:59:49;;;;;;;17.90;9.77;;;;;;;;;;5035322;28;20251;-69
2023/08/22 07:02:15;;;;;;;18.48;9.45;;;;;;;;;;5030375;28;20218;-69
2023/08/22 07:04:40;;;;;;;25.00;10.55;;;;;;;;;;5030414;28;20190;-69
2023/08/22 07:07:06;;;;;;;13.93;9.90;;;;;;;;;;5030945;28;20185;-69
2023/08/22 07:09:31;;;;;;;12.52;8.77;;;;;;;;;;5024063;28;20200;-69
2023/08/22 07:11:56;;;;;;;20.95;11.07;;;;;;;;;;5029960;28;20553;-69
2023/08/22 07:14:22;;;;;;;18.83;10.98;;;;;;;;;;5022898;28;20220;-69
2023/08/22 07:16:47;;;;;;;17.83;10.32;;;;;;;;;;5029756;28;20633;-69
2023/08/22 07:19:13;;;;;;;14.73;10.02;;;;;;;;;;5030392;28;20190;-68
2023/08/22 07:21:38;;;;;;;17.10;9.57;;;;;;;;;;5029250;28;20190;-69
2023/08/22 07:24:04;;;;;;;19.23;9.48;;;;;;;;;;5021050;28;20535;-69
2023/08/22 07:26:30;;;;;;;16.33;8.95;;;;;;;;;;5030081;28;20304;-69
2023/08/22 07:28:55;;;;;;;18.00;8.27;;;;;;;;;;5024755;28;20273;-68
2023/08/22 07:31:21;;;;;;;11.07;6.90;;;;;;;;;;5030149;28;20178;-68
2023/08/22 07:33:46;;;;;;;12.68;8.13;;;;;;;;;;5023572;28;20201;-68
2023/08/22 07:36:20;;;;;;;16.90;8.10;;;;;;;;;;5030740;28;20539;-68
2023/08/22 07:38:45;;;;;;;13.13;6.25;;;;;;;;;;5021544;28;20641;-68
2023/08/22 07:41:11;;;;;;;9.93;6.05;;;;;;;;;;5031270;28;20197;-68
2023/08/22 07:43:36;;;;;;;13.38;6.10;;;;;;;;;;5021635;28;20709;-68
2023/08/22 07:46:02;;;;;;;10.52;5.40;;;;;;;;;;5032517;28;20271;-68
2023/08/22 07:48:28;;;;;;;7.82;5.07;;;;;;;;;;5027231;28;20247;-68
2023/08/22 07:50:55;;;;;;;6.05;4.20;;;;;;;;;;5033539;28;20201;-68
2023/08/22 07:53:20;;;;;;;11.20;3.95;;;;;;;;;;5027829;28;20182;-67
2023/08/22 07:55:47;;;;;;;7.45;4.00;;;;;;;;;;5034136;28;20689;-67
2023/08/22 07:58:13;;;;;;;11.82;4.00;;;;;;;;;;5016833;28;20241;-68
2023/08/22 08:00:38;;;;;;;6.57;3.13;;;;;;;;;;5019431;28;20272;-69
2023/08/22 08:03:04;;;;;;;6.45;3.08;;;;;;;;;;5026666;28;20198;-69
2023/08/22 08:05:29;;;;;;;5.07;2.65;;;;;;;;;;5027660;28;20198;-68
2023/08/22 08:07:55;;;;;;;8.60;2.47;;;;;;;;;;5016192;28;20613;-68
2023/08/22 08:10:20;;;;;;;5.90;2.33;;;;;;;;;;5024877;28;20198;-68
2023/08/22 08:12:46;;;;;;;5.97;1.90;;;;;;;;;;5033720;28;20247;-68
2023/08/22 08:15:11;;;;;;;6.20;2.70;;;;;;;;;;5030360;28;20648;-68
2023/08/22 08:17:37;;;;;;;4.45;2.25;;;;;;;;;;5033020;28;20355;-69
2023/08/22 08:20:04;;;;;;;4.22;2.70;;;;;;;;;;5029561;28;20340;-69
2023/08/22 08:22:30;;;;;;;4.68;1.80;;;;;;;;;;5033017;28;20190;-68
2023/08/22 08:24:56;;;;;;;2.70;1.70;;;;;;;;;;5029023;28;20187;-68
2023/08/22 08:27:21;;;;;;;2.35;1.60;;;;;;;;;;5034203;28;20198;-68
2023/08/22 08:29:47;;;;;;;3.85;1.33;;;;;;;;;;5031417;28;20638;-67
2023/08/22 08:32:12;;;;;;;3.05;1.00;;;;;;;;;;5034015;28;20649;-68
2023/08/22 08:34:37;;;;;;;3.42;1.10;;;;;;;;;;5032726;28;20646;-69
2023/08/22 08:37:04;;;;;;;5.43;1.52;;;;;;;;;;5014905;28;20207;-69
2023/08/22 08:39:29;;;;;;;2.40;1.13;;;;;;;;;;5033178;28;20257;-68
2023/08/22 08:42:09;;;;;;;4.28;1.30;;;;;;;;;;5032752;28;20202;-68
2023/08/22 08:44:36;;;;;;;6.50;1.35;;;;;;;;;;5012827;28;20234;-69
2023/08/22 08:47:03;;;;;;;3.45;1.15;;;;;;;;;;5013493;28;20554;-69
2023/08/22 08:49:32;;;;;;;3.58;1.30;;;;;;;;;;5032772;28;20202;-69
2023/08/22 08:52:00;;;;;;;2.42;0.98;;;;;;;;;;5043430;28;20189;-68
2023/08/22 08:54:28;;;;;;;3.83;1.27;;;;;;;;;;5021573;28;20237;-69
2023/08/22 08:56:54;;;;;;;4.85;1.40;;;;;;;;;;5032519;28;20326;-69
2023/08/22 08:59:19;;;;;;;3.90;1.30;;;;;;;;;;5029758;28;20247;-68
2023/08/22 09:01:45;;;;;;;4.38;1.23;;;;;;;;;;5033859;28;20205;-66
2023/08/22 09:04:11;;;;;;;5.15;1.65;;;;;;;;;;5023943;28;20234;-69
2023/08/22 09:06:38;;;;;;;4.03;1.40;;;;;;;;;;5029730;28;20182;-67
2023/08/22 09:09:12;;;;;;;3.15;1.40;;;;;;;;;;5023949;28;20206;-68
2023/08/22 09:11:45;;;;;;;2.58;1.80;;;;;;;;;;5034822;28;20614;-67
2023/08/22 09:14:11;;;;;;;2.88;1.63;;;;;;;;;;5031032;28;20190;-67
2023/08/22 09:16:37;;;;;;;3.40;1.42;;;;;;;;;;5029852;28;20225;-68
2023/08/22 09:19:02;;;;;;;4.45;1.83;;;;;;;;;;5031515;28;20273;-68
2023/08/22 09:21:29;;;;;;;4.75;1.88;;;;;;;;;;5032930;28;20190;-68
2023/08/22 09:24:08;;;;;;;3.70;1.80;;;;;;;;;;5032465;28;20247;-67
2023/08/22 09:26:34;;;;;;;7.88;2.25;;;;;;;;;;5032549;28;20235;-68
2023/08/22 09:29:04;;;;;;;8.55;2.03;;;;;;;;;;5026501;28;20200;-68
2023/08/22 09:31:29;;;;;;;3.08;1.77;;;;;;;;;;5028412;28;20190;-68
2023/08/22 09:33:55;;;;;;;4.53;2.10;;;;;;;;;;5005720;28;20191;-68
2023/08/22 09:36:21;;;;;;;4.13;1.80;;;;;;;;;;5023379;28;20727;-68
2023/08/22 09:38:57;;;;;;;5.93;2.33;;;;;;;;;;5031210;28;20372;-69
2023/08/22 09:41:24;;;;;;;3.15;2.20;;;;;;;;;;5032435;28;20197;-68
2023/08/22 09:43:54;;;;;;;2.95;2.00;;;;;;;;;;5031064;28;20587;-68
2023/08/22 09:46:23;;;;;;;5.03;2.55;;;;;;;;;;5032763;28;20182;-68
2023/08/22 09:48:49;;;;;;;4.72;2.55;;;;;;;;;;5039807;28;20217;-69
2023/08/22 09:51:18;;;;;;;7.97;2.30;;;;;;;;;;5032859;28;20739;-68
2023/08/22 09:53:45;;;;;;;6.00;2.92;;;;;;;;;;5030381;28;20212;-68
2023/08/22 09:56:12;;;;;;;5.53;3.08;;;;;;;;;;5031905;28;20581;-68
2023/08/22 09:58:39;;;;;;;5.43;2.33;;;;;;;;;;5030473;28;20209;-68
2023/08/22 10:01:05;;;;;;;5.30;2.75;;;;;;;;;;5030197;28;20190;-68
2023/08/22 10:03:30;;;;;;;6.32;2.05;;;;;;;;;;5031714;28;20197;-67
2023/08/22 10:05:56;;;;;;;7.25;2.60;;;;;;;;;;5027731;28;20182;-67
2023/08/22 10:08:21;;;;;;;6.82;2.70;;;;;;;;;;5030974;28;20235;-68
2023/08/22 10:10:47;;;;;;;4.40;2.60;;;;;;;;;;5011652;28;20549;-67
2023/08/22 10:13:15;;;;;;;6.75;2.53;;;;;;;;;;5011388;28;20194;-67
2023/08/22 10:15:41;;;;;;;6.68;2.40;;;;;;;;;;5020864;28;20194;-67
2023/08/22 10:18:07;;;;;;;8.23;2.60;;;;;;;;;;5030792;28;20224;-66
2023/08/22 10:20:37;;;;;;;4.75;3.08;;;;;;;;;;5031762;28;20201;-68
2023/08/22 10:23:02;;;;;;;5.35;3.50;;;;;;;;;;5018641;28;20281;-68
2023/08/22 10:25:48;;;;;;;5.47;3.15;;;;;;;;;;5027603;28;20272;-68
2023/08/22 10:28:14;;;;;;;9.05;3.40;;;;;;;;;;5031006;28;20201;-67
2023/08/22 10:31:02;;;;;;;5.00;2.80;;;;;;;;;;5027756;28;20198;-68
2023/08/22 10:33:28;;;;;;;6.22;2.80;;;;;;;;;;5031685;28;20186;-70
2023/08/22 10:36:08;;;;;;;6.18;3.05;;;;;;;;;;5021898;28;20190;-68
2023/08/22 10:38:52;;;;;;;5.30;2.03;;;;;;;;;;5016938;28;20613;-70
2023/08/22 10:41:42;;;;;;;4.55;2.63;;;;;;;;;;5030194;28;20201;-67
2023/08/22 10:44:19;;;;;;;4.38;2.53;;;;;;;;;;5028787;28;20230;-67
2023/08/22 10:47:01;;;;;;;5.05;2.50;;;;;;;;;;5030694;28;20618;-68
2023/08/22 10:49:30;;;;;;;6.70;3.30;;;;;;;;;;5030680;28;20194;-67
2023/08/22 10:52:15;;;;;;;6.80;3.00;;;;;;;;;;5030755;28;20235;-68
2023/08/22 10:54:57;;;;;;;5.07;2.40;;;;;;;;;;5023978;28;20665;-67
2023/08/22 10:57:26;;;;;;;5.28;2.50;;;;;;;;;;5027089;28;20210;-68
2023/08/22 10:59:58;;;;;;;4.43;2.42;;;;;;;;;;5017938;28;20305;-68
2023/08/22 11:02:27;;;;;;;5.68;2.97;;;;;;;;;;5029971;28;20201;-68
2023/08/22 11:04:55;;;;;;;7.43;3.25;;;;;;;;;;5030483;28;20198;-68
2023/08/22 11:07:21;;;;;;;5.07;2.53;;;;;;;;;;5029535;28;20190;-67
2023/08/22 11:09:48;;;;;;;8.20;2.55;;;;;;;;;;5032587;28;20194;-66
2023/08/22 11:12:18;;;;;;;7.60;2.80;;;;;;;;;;5029677;28;20187;-67
2023/08/22 11:14:45;;;;;;;6.95;2.65;;;;;;;;;;5018129;28;20193;-68
2023/08/22 11:17:13;;;;;;;5.95;2.65;;;;;;;;;;5010945;28;20202;-66
2023/08/22 11:19:39;;;;;;;7.40;3.25;;;;;;;;;;5028837;28;20193;-67
2023/08/22 11:22:06;;;;;;;6.53;2.53;;;;;;;;;;5028292;28;20274;-67
2023/08/22 11:24:31;;;;;;;4.97;2.75;;;;;;;;;;5031221;28;20194;-67
2023/08/22 11:26:56;;;;;;;7.78;2.92;;;;;;;;;;5030619;28;20185;-67
2023/08/22 11:29:22;;;;;;;4.22;2.58;;;;;;;;;;5029720;28;20673;-68
2023/08/22 11:31:48;;;;;;;5.70;2.42;;;;;;;;;;5031937;28;20191;-67
2023/08/22 11:34:13;;;;;;;7.50;2.53;;;;;;;;;;5030071;28;20186;-67
2023/08/22 11:36:39;;;;;;;6.30;1.83;;;;;;;;;;5030876;28;20568;-67
2023/08/22 11:39:08;;;;;;;3.47;1.88;;;;;;;;;;5016823;28;20687;-68
2023/08/22 11:41:33;;;;;;;3.92;1.23;;;;;;;;;;5034873;28;20220;-67
2023/08/22 11:44:00;;;;;;;3.30;1.17;;;;;;;;;;5031167;28;20308;-67
2023/08/22 11:46:26;;;;;;;3.65;1.17;;;;;;;;;;5021815;28;20198;-67
2023/08/22 11:48:52;;;;;;;2.75;1.10;;;;;;;;;;5030496;28;20200;-66
2023/08/22 11:51:21;;;;;;;4.10;1.20;;;;;;;;;;5030897;28;20194;-66
2023/08/22 11:53:48;;;;;;;4.47;1.52;;;;;;;;;;5028532;28;20194;-67
2023/08/22 11:56:14;;;;;;;3.30;1.58;;;;;;;;;;5026659;28;20197;-67
2023/08/22 11:58:43;;;;;;;4.97;1.67;;;;;;;;;;5030542;28;20214;-67
2023/08/22 12:01:09;;;;;;;6.60;1.98;;;;;;;;;;5019023;28;20669;-67
2023/08/22 12:03:43;;;;;;;5.40;1.60;;;;;;;;;;5030553;28;20205;-67
2023/08/22 12:06:13;;;;;;;7.30;1.85;;;;;;;;;;5019620;28;20736;-67
2023/08/22 12:08:39;;;;;;;3.17;1.50;;;;;;;;;;5029772;28;20187;-66
2023/08/22 12:11:04;;;;;;;5.30;1.67;;;;;;;;;;5029459;28;20198;-67
2023/08/22 12:13:29;;;;;;;4.30;1.42;;;;;;;;;;5027228;28;20216;-68
2023/08/22 12:15:55;;;;;;;5.25;1.88;;;;;;;;;;5022215;28;20198;-68
2023/08/22 12:18:32;;;;;;;5.90;1.88;;;;;;;;;;5029182;28;20560;-67
2023/08/22 12:20:58;;;;;;;5.97;1.70;;;;;;;;;;5025501;28;20617;-68
2023/08/22 12:23:23;;;;;;;4.50;1.88;;;;;;;;;;5030791;28;20269;-68
2023/08/22 12:25:49;;;;;;;5.68;1.40;;;;;;;;;;5029084;28;20293;-67
2023/08/22 12:28:15;;;;;;;4.97;1.52;;;;;;;;;;5028662;28;20194;-69
2023/08/22 12:30:41;;;;;;;4.63;1.20;;;;;;;;;;5023481;28;20197;-69
2023/08/22 12:33:08;;;;;;;1.50;0.98;;;;;;;;;;5032671;28;20190;-67
2023/08/22 12:35:34;;;;;;;2.28;1.30;;;;;;;;;;5013562;28;20179;-69
2023/08/22 12:38:00;;;;;;;2.58;0.88;;;;;;;;;;5038567;28;20213;-68
2023/08/22 12:40:26;;;;;;;2.38;0.75;;;;;;;;;;5028481;28;20186;-68
2023/08/22 12:42:52;;;;;;;2.72;0.77;;;;;;;;;;5033439;28;20209;-68
2023/08/22 12:45:17;;;;;;;3.10;0.90;;;;;;;;;;5024122;28;20266;-68
2023/08/22 12:47:43;;;;;;;2.70;0.85;;;;;;;;;;5033606;28;20646;-68
2023/08/22 12:50:09;;;;;;;3.88;0.80;;;;;;;;;;5032823;28;20190;-68
2023/08/22 12:52:37;;;;;;;2.72;0.45;;;;;;;;;;5014841;28;20269;-67
2023/08/22 12:55:06;;;;;;;4.97;0.80;;;;;;;;;;5029153;28;20186;-67
2023/08/22 12:57:33;;;;;;;2.97;0.90;;;;;;;;;;5016670;28;20236;-67
2023/08/22 12:59:58;;;;;;;2.20;0.60;;;;;;;;;;5026312;28;21221;-67
2023/08/22 13:02:23;;;;;;;3.53;0.80;;;;;;;;;;5027936;28;20236;-67
2023/08/22 13:04:49;;;;;;;1.67;0.60;;;;;;;;;;5033157;28;20220;-67
2023/08/22 13:07:15;;;;;;;1.52;0.60;;;;;;;;;;5033816;28;20547;-68
2023/08/22 13:09:40;;;;;;;2.13;0.57;;;;;;;;;;5025564;28;20239;-68
2023/08/22 13:12:06;;;;;;;1.70;0.47;;;;;;;;;;5029887;28;20197;-67
2023/08/22 13:14:31;;;;;;;1.52;0.60;;;;;;;;;;5032758;28;20201;-67
2023/08/22 13:16:57;;;;;;;1.20;0.70;;;;;;;;;;5029518;28;20618;-68
2023/08/22 13:19:22;;;;;;;0.85;0.50;;;;;;;;;;5033424;28;20189;-69
2023/08/22 13:21:47;;;;;;;2.92;0.70;;;;;;;;;;5029302;28;20216;-69
2023/08/22 13:24:13;;;;;;;1.80;0.70;;;;;;;;;;5012425;28;20264;-67
2023/08/22 13:26:40;;;;;;;1.40;0.70;;;;;;;;;;5024600;28;20208;-67
2023/08/22 13:29:05;;;;;;;1.23;0.60;;;;;;;;;;5025494;28;20221;-67
2023/08/22 13:31:31;;;;;;;1.98;0.70;;;;;;;;;;5033811;28;20542;-67
2023/08/22 13:33:56;;;;;;;0.75;0.40;;;;;;;;;;5041118;28;20210;-67
2023/08/22 13:36:21;;;;;;;0.65;0.50;;;;;;;;;;5031767;28;20194;-67
2023/08/22 13:38:47;;;;;;;3.08;0.73;;;;;;;;;;5029634;28;20695;-67
2023/08/22 13:41:12;;;;;;;1.17;0.40;;;;;;;;;;5032840;28;20254;-67
2023/08/22 13:43:39;;;;;;;0.75;0.70;;;;;;;;;;5030732;28;20230;-66
2023/08/22 13:46:05;;;;;;;2.63;0.50;;;;;;;;;;5026300;28;20201;-67
2023/08/22 13:48:32;;;;;;;2.50;0.45;;;;;;;;;;5032178;28;20263;-66
2023/08/22 13:50:57;;;;;;;1.45;0.60;;;;;;;;;;5029428;28;20186;-67
2023/08/22 13:53:22;;;;;;;2.55;0.63;;;;;;;;;;5032021;28;20198;-67
2023/08/22 13:55:48;;;;;;;2.08;0.73;;;;;;;;;;5026646;28;20271;-67
2023/08/22 13:58:13;;;;;;;1.30;0.65;;;;;;;;;;5031838;28;20237;-68
2023/08/22 14:00:39;;;;;;;2.08;0.70;;;;;;;;;;5031220;28;20186;-67
2023/08/22 14:03:04;;;;;;;4.90;0.70;;;;;;;;;;5031228;28;20190;-67
2023/08/22 14:05:29;;;;;;;1.42;0.70;;;;;;;;;;5018455;28;20191;-66
2023/08/22 14:07:55;;;;;;;2.17;1.00;;;;;;;;;;5030479;28;20634;-66
2023/08/22 14:10:23;;;;;;;1.58;0.70;;;;;;;;;;5030023;28;20212;-66
2023/08/22 14:12:50;;;;;;;1.95;1.10;;;;;;;;;;5021126;28;20199;-67
2023/08/22 14:15:15;;;;;;;3.40;0.98;;;;;;;;;;5022997;28;20212;-67
2023/08/22 14:17:40;;;;;;;3.13;1.00;;;;;;;;;;5019863;28;20271;-67
2023/08/22 14:20:07;;;;;;;2.10;0.90;;;;;;;;;;5015686;28;20665;-68
2023/08/22 14:22:32;;;;;;;2.28;1.10;;;;;;;;;;5011945;28;20197;-67
2023/08/22 14:24:57;;;;;;;2.45;1.23;;;;;;;;;;5023897;28;20276;-67
2023/08/22 14:27:23;;;;;;;1.55;1.10;;;;;;;;;;5020861;28;20197;-67
2023/08/22 14:29:48;;;;;;;6.00;3.50;;;;;;;;;;5037646;28;20320;-67
2023/08/22 14:32:13;;;;;;;1.95;1.38;;;;;;;;;;5018077;28;20201;-68